Time;durP1;ratioP1;P1;durP2;ratioP2;P2;SDS_P1;SDS_P2;PMS_P1;PMS_P2;Temp;Humidity;BMP_temperature;BMP_pressure;BME280_temperature;BME280_humidity;BME280_pressure;Samples;Min_cycle;Max_cycle;Signal;HPM_P1;HPM_P2
2022/01/08 00:02:22;;;;;;;15.40;7.30;;;;;;;-5.18;57.90;96620.45;107574;1268;32411;-73
2022/01/08 00:04:53;;;;;;;14.60;7.00;;;;;;;-5.23;57.79;96610.86;107594;1270;28330;-74
2022/01/08 00:07:24;;;;;;;13.80;5.60;;;;;;;-5.28;58.15;96608.83;107561;1268;37681;-73
2022/01/08 00:09:55;;;;;;;18.30;8.30;;;;;;;-5.31;57.93;96606.05;107557;1268;43675;-73
2022/01/08 00:12:25;;;;;;;12.00;5.30;;;;;;;-5.33;58.15;96605.63;107583;1268;36199;-74
2022/01/08 00:14:56;;;;;;;14.40;7.10;;;;;;;-5.38;58.11;96607.33;107459;1268;43192;-74
2022/01/08 00:17:27;;;;;;;15.00;7.50;;;;;;;-5.39;57.96;96607.99;107509;1268;45263;-74
2022/01/08 00:19:58;;;;;;;20.10;7.30;;;;;;;-5.38;58.27;96606.98;107533;1271;37348;-73
2022/01/08 00:22:29;;;;;;;14.00;6.80;;;;;;;-5.35;58.11;96606.42;107375;1271;32295;-73
2022/01/08 00:25:00;;;;;;;14.10;7.40;;;;;;;-5.39;57.84;96604.73;107594;1268;32126;-73
2022/01/08 00:27:31;;;;;;;16.70;7.40;;;;;;;-5.40;58.14;96608.80;107562;1268;33554;-73
2022/01/08 00:30:02;;;;;;;13.10;7.00;;;;;;;-5.45;58.22;96608.17;107544;1268;38648;-74
2022/01/08 00:32:33;;;;;;;18.50;8.30;;;;;;;-5.51;58.10;96605.41;107603;1268;40702;-73
2022/01/08 00:35:04;;;;;;;16.60;7.30;;;;;;;-5.51;58.26;96605.69;107683;1268;38536;-73
2022/01/08 00:37:37;;;;;;;17.60;6.80;;;;;;;-5.52;58.33;96602.61;107609;1268;42807;-73
2022/01/08 00:40:11;;;;;;;14.10;7.30;;;;;;;-5.49;58.30;96595.43;107532;1268;46283;-74
2022/01/08 00:42:41;;;;;;;17.40;7.10;;;;;;;-5.51;58.26;96598.25;107607;1268;38834;-74
2022/01/08 00:45:13;;;;;;;8.80;4.20;;;;;;;-5.54;58.30;96596.59;107534;1270;31130;-74
2022/01/08 00:47:45;;;;;;;13.60;7.20;;;;;;;-5.58;58.38;96602.53;107449;1270;53301;-74
2022/01/08 00:50:16;;;;;;;11.60;5.80;;;;;;;-5.61;58.39;96607.21;107560;1270;39571;-73
2022/01/08 00:52:47;;;;;;;17.00;6.30;;;;;;;-5.59;58.46;96602.33;107428;1270;43977;-74
2022/01/08 00:55:18;;;;;;;12.30;6.30;;;;;;;-5.55;58.54;96603.48;107558;1270;35564;-74
2022/01/08 00:57:49;;;;;;;14.70;6.80;;;;;;;-5.57;58.41;96603.06;107567;1268;42739;-74
2022/01/08 01:00:20;;;;;;;13.10;6.60;;;;;;;-5.60;58.39;96605.36;107576;1268;37691;-74
2022/01/08 01:02:53;;;;;;;17.10;7.20;;;;;;;-5.57;58.62;96606.92;107544;1267;48414;-73
2022/01/08 01:05:24;;;;;;;13.50;6.30;;;;;;;-5.55;58.37;96606.66;107479;1268;42837;-74
2022/01/08 01:07:55;;;;;;;13.50;6.20;;;;;;;-5.58;58.39;96601.14;107582;1268;33804;-74
2022/01/08 01:10:26;;;;;;;10.90;5.90;;;;;;;-5.62;58.49;96599.90;107611;1268;39318;-73
2022/01/08 01:12:57;;;;;;;12.70;5.90;;;;;;;-5.61;58.59;96596.69;107620;1268;36202;-74
2022/01/08 01:15:28;;;;;;;14.10;6.10;;;;;;;-5.60;58.39;96594.45;107599;1268;32925;-74
2022/01/08 01:17:59;;;;;;;9.40;5.60;;;;;;;-5.60;58.56;96588.45;107576;1268;36828;-73
2022/01/08 01:20:30;;;;;;;13.90;6.90;;;;;;;-5.52;58.51;96585.21;107593;1268;45637;-74
2022/01/08 01:23:07;;;;;;;8.30;5.20;;;;;;;-5.52;58.48;96581.08;107570;1268;42925;-74
2022/01/08 01:25:41;;;;;;;15.80;6.10;;;;;;;-5.49;58.40;96574.48;107527;1268;47243;-75
2022/01/08 01:28:27;;;;;;;9.50;3.40;;;;;;;-5.46;58.20;96573.58;107619;1268;34613;-74
2022/01/08 01:47:46;;;;;;;13.00;5.00;;;;;;;-5.69;58.49;96541.80;107580;1268;44833;-74
2022/01/08 01:50:17;;;;;;;13.10;5.30;;;;;;;-5.70;58.44;96543.25;107589;1268;31542;-74
2022/01/08 01:52:47;;;;;;;11.20;5.30;;;;;;;-5.72;59.01;96541.77;107553;1268;39550;-74
2022/01/08 01:55:18;;;;;;;13.30;6.60;;;;;;;-5.76;58.61;96550.56;107519;1270;45439;-74
2022/01/08 01:57:49;;;;;;;10.80;4.70;;;;;;;-5.77;58.85;96550.98;107490;1270;40532;-74
2022/01/08 02:00:21;;;;;;;11.00;5.20;;;;;;;-5.77;58.83;96552.69;107549;1270;34716;-74
2022/01/08 02:02:52;;;;;;;13.30;6.20;;;;;;;-5.76;58.73;96554.13;107568;1268;45245;-75
2022/01/08 02:05:22;;;;;;;9.40;5.00;;;;;;;-5.72;58.73;96553.29;107532;1270;33748;-74
2022/01/08 02:07:55;;;;;;;9.10;4.60;;;;;;;-5.72;58.69;96550.42;107510;1270;34597;-74
2022/01/08 02:10:25;;;;;;;13.90;6.30;;;;;;;-5.74;59.01;96550.64;107516;1270;43456;-74
2022/01/08 02:12:56;;;;;;;15.50;6.40;;;;;;;-5.78;58.95;96547.18;107426;1270;46056;-74
2022/01/08 02:15:27;;;;;;;12.90;5.50;;;;;;;-5.81;59.07;96537.54;107503;1270;50599;-74
2022/01/08 02:17:58;;;;;;;11.20;5.50;;;;;;;-5.81;59.14;96539.56;107529;1270;43672;-74
2022/01/08 02:20:29;;;;;;;6.40;3.90;;;;;;;-5.80;58.83;96538.94;107494;1270;43719;-74
2022/01/08 02:23:00;;;;;;;10.70;5.10;;;;;;;-5.80;59.09;96533.30;107382;1270;41818;-74
2022/01/08 02:25:31;;;;;;;10.40;4.80;;;;;;;-5.83;59.18;96526.39;107443;1270;46257;-74
2022/01/08 02:28:04;;;;;;;5.70;3.60;;;;;;;-5.82;59.10;96522.90;107530;1268;41086;-73
2022/01/08 02:30:34;;;;;;;13.70;4.90;;;;;;;-5.83;58.88;96518.84;107587;1271;34061;-74
2022/01/08 02:33:05;;;;;;;11.10;4.80;;;;;;;-5.82;58.76;96506.70;107658;1268;42503;-73
2022/01/08 02:35:36;;;;;;;14.50;5.90;;;;;;;-5.77;58.93;96505.55;107608;1270;31246;-74
2022/01/08 02:38:07;;;;;;;9.60;4.80;;;;;;;-5.74;58.71;96502.42;107631;1268;40152;-74
2022/01/08 02:40:38;;;;;;;10.50;4.50;;;;;;;-5.69;58.56;96499.30;107562;1268;46246;-74
2022/01/08 02:43:08;;;;;;;8.10;4.20;;;;;;;-5.67;58.45;96499.39;107570;1268;31931;-74
2022/01/08 02:45:39;;;;;;;12.50;4.90;;;;;;;-5.66;58.65;96497.77;107577;1268;45417;-74
2022/01/08 02:48:10;;;;;;;9.70;4.00;;;;;;;-5.68;58.61;96494.89;107576;1268;44424;-74
2022/01/08 02:50:41;;;;;;;13.80;5.50;;;;;;;-5.70;58.57;96488.76;107610;1268;33521;-74
2022/01/08 02:53:11;;;;;;;8.90;5.20;;;;;;;-5.73;58.64;96488.56;107580;1268;34977;-74
2022/01/08 02:55:42;;;;;;;11.60;4.20;;;;;;;-5.74;58.60;96494.52;107603;1268;34488;-73
2022/01/08 02:58:13;;;;;;;10.00;5.40;;;;;;;-5.75;58.60;96485.33;107409;1270;44747;-74
2022/01/08 03:00:44;;;;;;;7.70;4.40;;;;;;;-5.77;58.80;96478.02;107598;1268;33844;-74
2022/01/08 03:03:16;;;;;;;9.20;4.90;;;;;;;-5.77;58.76;96455.00;107570;1268;40675;-74
2022/01/08 03:05:46;;;;;;;9.80;4.50;;;;;;;-5.78;58.70;96455.47;107594;1268;41292;-74
2022/01/08 03:08:18;;;;;;;8.40;4.10;;;;;;;-5.78;58.96;96454.25;107631;1268;31170;-74
2022/01/08 03:10:48;;;;;;;5.70;3.00;;;;;;;-5.74;58.79;96458.53;107609;1268;34704;-74
2022/01/08 03:13:19;;;;;;;9.30;3.60;;;;;;;-5.72;58.73;96458.30;107552;1268;46126;-74
2022/01/08 03:15:50;;;;;;;9.00;4.30;;;;;;;-5.72;58.52;96461.09;107602;1268;42536;-74
2022/01/08 03:18:21;;;;;;;10.60;3.70;;;;;;;-5.74;58.70;96463.05;107617;1268;34958;-74
2022/01/08 03:21:01;;;;;;;7.40;2.90;;;;;;;-5.71;58.33;96456.81;107542;1268;46659;-74
2022/01/08 03:23:39;;;;;;;7.90;4.00;;;;;;;-5.68;58.44;96457.16;107633;1268;30511;-74
2022/01/08 03:26:10;;;;;;;6.50;3.40;;;;;;;-5.67;58.08;96454.46;107663;1268;35369;-74
2022/01/08 03:28:41;;;;;;;6.10;3.60;;;;;;;-5.66;58.33;96441.96;107573;1268;50362;-73
2022/01/08 03:31:13;;;;;;;6.40;3.60;;;;;;;-5.66;58.04;96441.25;107575;1270;43925;-74
2022/01/08 03:33:44;;;;;;;7.60;4.20;;;;;;;-5.62;58.00;96436.77;107565;1270;38568;-74
2022/01/08 03:36:16;;;;;;;6.50;3.30;;;;;;;-5.64;57.72;96431.06;107505;1270;34399;-74
2022/01/08 03:38:47;;;;;;;5.70;3.20;;;;;;;-5.66;57.88;96436.40;107501;1270;40390;-74
2022/01/08 03:41:19;;;;;;;5.70;2.80;;;;;;;-5.68;57.93;96430.98;107561;1270;32846;-74
2022/01/08 03:43:51;;;;;;;5.90;3.10;;;;;;;-5.69;57.59;96432.28;107550;1268;42557;-74
2022/01/08 03:46:23;;;;;;;6.30;3.20;;;;;;;-5.65;57.71;96426.75;107531;1269;39762;-74
2022/01/08 03:49:13;;;;;;;6.90;3.30;;;;;;;-5.65;57.62;96427.91;107481;1270;42943;-74
2022/01/08 03:51:43;;;;;;;5.80;2.90;;;;;;;-5.64;57.78;96421.09;107386;1270;44890;-74
2022/01/08 03:54:14;;;;;;;7.10;3.60;;;;;;;-5.62;57.71;96421.69;107498;1270;44255;-74
2022/01/08 03:56:45;;;;;;;6.30;3.50;;;;;;;-5.61;57.47;96417.01;107447;1270;41203;-74
2022/01/08 03:59:16;;;;;;;8.60;3.30;;;;;;;-5.62;57.58;96415.41;107389;1269;46487;-74
2022/01/08 04:01:47;;;;;;;5.50;2.60;;;;;;;-5.66;57.69;96421.30;107652;1268;37400;-74
2022/01/08 04:04:18;;;;;;;6.70;3.10;;;;;;;-5.69;57.61;96410.83;107564;1270;30688;-74
2022/01/08 04:06:48;;;;;;;7.40;3.30;;;;;;;-5.72;57.74;96416.20;107535;1270;37996;-73
2022/01/08 04:09:19;;;;;;;5.40;2.50;;;;;;;-5.76;57.94;96418.70;107351;1270;41878;-74
2022/01/08 04:11:51;;;;;;;6.30;2.70;;;;;;;-5.74;57.57;96417.30;107600;1270;37178;-74
2022/01/08 04:14:22;;;;;;;3.50;1.70;;;;;;;-5.71;57.79;96425.23;107491;1270;42333;-74
2022/01/08 04:16:53;;;;;;;5.30;2.60;;;;;;;-5.70;57.73;96419.36;107541;1268;44239;-74
2022/01/08 04:19:24;;;;;;;7.40;3.80;;;;;;;-5.68;58.04;96417.04;107517;1269;41409;-74
2022/01/08 04:22:11;;;;;;;9.50;4.10;;;;;;;-5.66;57.59;96426.83;107514;1269;48089;-73
2022/01/08 04:24:43;;;;;;;6.70;2.80;;;;;;;-5.68;58.05;96420.69;107539;1270;39041;-74
2022/01/08 04:27:15;;;;;;;7.30;2.90;;;;;;;-5.71;58.03;96425.83;107584;1268;41213;-74
2022/01/08 04:29:46;;;;;;;6.10;2.70;;;;;;;-5.69;58.01;96416.48;107533;1268;40039;-74
2022/01/08 04:32:17;;;;;;;9.30;4.50;;;;;;;-5.65;58.20;96412.06;107598;1268;34632;-74
2022/01/08 04:34:48;;;;;;;9.10;3.90;;;;;;;-5.66;58.18;96406.98;107550;1268;35694;-74
2022/01/08 04:37:19;;;;;;;6.00;3.50;;;;;;;-5.68;58.28;96402.10;107529;1268;43257;-73
2022/01/08 04:39:50;;;;;;;8.20;3.90;;;;;;;-5.73;58.38;96397.34;107608;1268;47525;-74
2022/01/08 04:42:21;;;;;;;6.90;3.10;;;;;;;-5.74;58.44;96397.45;107505;1271;44351;-74
2022/01/08 04:44:54;;;;;;;8.20;3.30;;;;;;;-5.70;58.07;96399.42;107515;1268;41590;-74
2022/01/08 04:47:25;;;;;;;4.60;2.50;;;;;;;-5.67;58.22;96404.34;107535;1268;40848;-74
2022/01/08 04:49:56;;;;;;;8.60;3.00;;;;;;;-5.68;58.11;96390.71;107613;1268;31750;-74
2022/01/08 04:52:27;;;;;;;5.30;2.80;;;;;;;-5.68;57.97;96379.94;107607;1268;33274;-74
2022/01/08 04:54:57;;;;;;;7.20;3.70;;;;;;;-5.69;58.09;96370.71;107586;1268;37571;-74
2022/01/08 04:57:28;;;;;;;8.80;3.40;;;;;;;-5.69;58.02;96377.04;107548;1268;39803;-74
2022/01/08 04:59:59;;;;;;;3.90;2.30;;;;;;;-5.70;57.89;96385.67;107521;1268;43491;-74
2022/01/08 05:02:30;;;;;;;3.50;2.70;;;;;;;-5.69;57.78;96390.66;107525;1270;47233;-74
2022/01/08 05:05:01;;;;;;;6.70;3.00;;;;;;;-5.66;57.58;96392.70;107511;1270;39372;-74
2022/01/08 05:07:31;;;;;;;3.20;2.50;;;;;;;-5.67;57.70;96390.98;107547;1270;34252;-74
2022/01/08 05:10:02;;;;;;;4.20;2.70;;;;;;;-5.72;57.81;96397.19;107557;1269;32949;-74
2022/01/08 05:12:33;;;;;;;4.60;2.60;;;;;;;-5.74;57.74;96392.91;107591;1268;36316;-74
2022/01/08 05:15:06;;;;;;;5.00;2.70;;;;;;;-5.74;57.32;96400.22;107648;1268;44594;-74
2022/01/08 05:17:38;;;;;;;4.40;2.80;;;;;;;-5.71;56.85;96398.42;107647;1270;36380;-74
2022/01/08 05:20:13;;;;;;;6.90;2.90;;;;;;;-5.64;56.53;96396.50;107550;1270;43876;-74
2022/01/08 05:22:52;;;;;;;6.40;3.10;;;;;;;-5.58;56.45;96399.52;107570;1270;32915;-74
2022/01/08 05:25:24;;;;;;;6.80;3.60;;;;;;;-5.56;56.29;96398.79;107535;1270;44084;-74
2022/01/08 05:27:55;;;;;;;5.30;3.00;;;;;;;-5.56;56.44;96406.17;107504;1270;41319;-74
2022/01/08 05:30:27;;;;;;;3.70;2.00;;;;;;;-5.57;56.53;96410.41;107427;1270;35881;-74
2022/01/08 05:32:59;;;;;;;3.00;2.30;;;;;;;-5.58;56.56;96412.15;107432;1270;35235;-74
2022/01/08 05:35:30;;;;;;;7.90;3.50;;;;;;;-5.61;56.67;96411.92;107401;1268;39981;-74
2022/01/08 05:38:01;;;;;;;5.70;3.30;;;;;;;-5.64;56.81;96408.38;107438;1270;42460;-74
2022/01/08 05:40:32;;;;;;;7.70;2.90;;;;;;;-5.71;57.12;96410.34;107447;1270;32606;-74
2022/01/08 05:43:03;;;;;;;5.10;3.00;;;;;;;-5.78;57.18;96413.27;107356;1271;40559;-74
2022/01/08 05:45:34;;;;;;;9.10;2.90;;;;;;;-5.85;57.43;96422.48;107382;1271;45112;-74
2022/01/08 05:48:05;;;;;;;7.20;3.40;;;;;;;-5.85;57.29;96416.48;107485;1270;33852;-74
2022/01/08 05:50:36;;;;;;;9.50;3.60;;;;;;;-5.85;57.60;96419.81;107553;1270;42083;-74
2022/01/08 05:53:08;;;;;;;5.70;3.40;;;;;;;-5.86;57.51;96421.40;107532;1270;39024;-74
2022/01/08 05:55:39;;;;;;;8.10;3.80;;;;;;;-5.87;57.47;96423.17;107473;1270;34059;-74
2022/01/08 05:58:10;;;;;;;7.80;3.10;;;;;;;-5.91;57.70;96420.33;107435;1270;30632;-74
2022/01/08 06:00:41;;;;;;;5.10;2.80;;;;;;;-5.93;58.07;96415.92;107399;1270;43840;-74
2022/01/08 06:03:11;;;;;;;6.50;3.20;;;;;;;-5.95;57.92;96418.56;107317;1271;41527;-74
2022/01/08 06:05:42;;;;;;;8.90;3.50;;;;;;;-5.95;57.93;96408.77;107396;1270;40501;-74
2022/01/08 06:08:13;;;;;;;7.70;3.40;;;;;;;-5.95;58.07;96404.95;107390;1270;43856;-73
2022/01/08 06:10:43;;;;;;;7.00;3.70;;;;;;;-5.97;57.94;96412.27;107551;1270;35168;-74
2022/01/08 06:13:14;;;;;;;7.50;2.60;;;;;;;-6.00;58.31;96410.70;107429;1270;39942;-73
2022/01/08 06:15:45;;;;;;;5.60;2.80;;;;;;;-6.01;58.09;96409.49;107412;1270;43788;-74
2022/01/08 06:18:16;;;;;;;7.80;3.80;;;;;;;-6.02;58.19;96410.88;107390;1270;35683;-74
2022/01/08 06:20:47;;;;;;;6.70;3.50;;;;;;;-6.03;58.21;96415.70;107427;1270;41648;-74
2022/01/08 06:23:18;;;;;;;6.50;4.00;;;;;;;-6.03;58.30;96416.96;107494;1270;34823;-74
2022/01/08 06:25:49;;;;;;;5.40;3.50;;;;;;;-6.03;58.22;96420.23;107454;1270;41254;-74
2022/01/08 06:28:20;;;;;;;5.70;2.80;;;;;;;-5.98;58.11;96420.77;107587;1268;41536;-74
2022/01/08 06:30:52;;;;;;;5.70;2.50;;;;;;;-5.93;58.21;96416.16;107533;1268;49878;-74
2022/01/08 06:33:23;;;;;;;5.30;2.80;;;;;;;-5.89;58.09;96421.15;107572;1268;41911;-74
2022/01/08 06:35:54;;;;;;;7.40;4.30;;;;;;;-5.87;58.16;96425.55;107538;1268;48195;-73
2022/01/08 06:38:25;;;;;;;7.70;2.90;;;;;;;-5.87;58.34;96425.88;107545;1271;34756;-74
2022/01/08 06:40:55;;;;;;;4.70;2.50;;;;;;;-5.82;58.11;96422.90;107565;1270;40442;-73
2022/01/08 06:43:27;;;;;;;7.00;2.90;;;;;;;-5.71;58.42;96414.63;107512;1270;40159;-74
2022/01/08 06:45:58;;;;;;;7.40;3.20;;;;;;;-5.67;58.29;96415.73;107606;1270;34072;-74
2022/01/08 06:48:29;;;;;;;6.70;2.50;;;;;;;-5.65;58.10;96415.98;107531;1268;47372;-74
2022/01/08 06:51:00;;;;;;;12.30;4.90;;;;;;;-5.63;58.38;96413.56;107555;1270;31353;-74
2022/01/08 06:53:33;;;;;;;6.30;3.20;;;;;;;-5.65;58.34;96420.29;107579;1270;33877;-74
2022/01/08 06:56:05;;;;;;;14.40;4.80;;;;;;;-5.66;58.52;96421.62;107657;1270;35125;-74
2022/01/08 06:58:37;;;;;;;7.90;3.50;;;;;;;-5.69;58.46;96418.09;107549;1270;40243;-74
2022/01/08 07:01:07;;;;;;;10.20;4.20;;;;;;;-5.70;58.50;96422.42;107669;1269;27586;-74
2022/01/08 07:03:38;;;;;;;6.00;3.50;;;;;;;-5.67;58.69;96419.87;107619;1268;46735;-74
2022/01/08 07:06:09;;;;;;;4.60;2.70;;;;;;;-5.64;58.72;96415.90;107572;1268;37872;-74
2022/01/08 07:08:41;;;;;;;7.70;2.50;;;;;;;-5.57;58.64;96416.48;107617;1268;42910;-74
2022/01/08 07:11:12;;;;;;;5.70;3.20;;;;;;;-5.34;58.64;96409.87;107563;1268;41602;-74
2022/01/08 07:13:43;;;;;;;5.80;3.60;;;;;;;-4.86;58.29;96412.38;107552;1270;47317;-74
2022/01/08 07:16:14;;;;;;;8.20;4.30;;;;;;;-4.40;57.43;96406.19;107551;1268;48888;-74
2022/01/08 07:18:45;;;;;;;9.10;3.70;;;;;;;-4.01;56.76;96402.88;107518;1270;39765;-74
2022/01/08 07:21:17;;;;;;;10.50;4.80;;;;;;;-3.65;56.27;96401.69;107577;1268;40593;-74
2022/01/08 07:23:48;;;;;;;6.80;2.70;;;;;;;-3.41;55.26;96405.90;107529;1268;51669;-74
2022/01/08 07:26:19;;;;;;;8.30;4.60;;;;;;;-3.27;54.72;96396.67;107568;1268;47589;-74
2022/01/08 07:28:50;;;;;;;5.60;3.60;;;;;;;-3.05;54.64;96402.02;107428;1268;216967;-74
2022/01/08 07:31:22;;;;;;;6.80;3.90;;;;;;;-2.81;53.91;96403.80;107576;1268;41143;-74
2022/01/08 07:33:53;;;;;;;9.00;4.90;;;;;;;-2.58;53.48;96385.02;107530;1268;47848;-74
2022/01/08 07:36:24;;;;;;;7.20;4.40;;;;;;;-2.35;53.33;96388.25;107605;1268;40191;-74
2022/01/08 07:38:54;;;;;;;9.70;5.00;;;;;;;-2.09;53.15;96388.40;107567;1268;39000;-74
2022/01/08 07:41:25;;;;;;;10.30;5.50;;;;;;;-1.94;52.60;96383.45;107547;1270;41577;-74
2022/01/08 07:43:56;;;;;;;8.50;5.10;;;;;;;-1.87;52.33;96380.75;107493;1269;43018;-74
2022/01/08 07:46:27;;;;;;;10.60;5.30;;;;;;;-1.79;51.61;96381.25;107536;1270;46089;-74
2022/01/08 07:48:58;;;;;;;9.80;5.20;;;;;;;-1.65;52.10;96379.10;107574;1268;31096;-73
2022/01/08 07:51:29;;;;;;;9.80;5.00;;;;;;;-1.56;51.78;96381.41;107596;1268;35574;-73
2022/01/08 07:54:06;;;;;;;10.10;5.50;;;;;;;-1.53;51.67;96383.70;107470;1270;42507;-74
2022/01/08 07:56:37;;;;;;;10.80;5.50;;;;;;;-1.63;51.20;96382.65;107519;1270;45297;-73
2022/01/08 07:59:08;;;;;;;11.90;5.10;;;;;;;-1.68;51.34;96378.13;107593;1268;44871;-74
2022/01/08 08:01:39;;;;;;;9.70;4.60;;;;;;;-1.74;51.43;96369.42;107517;1268;40616;-74
2022/01/08 08:04:11;;;;;;;9.00;4.00;;;;;;;-1.98;50.83;96369.76;107541;1268;46300;-74
2022/01/08 08:06:47;;;;;;;10.00;5.40;;;;;;;-2.27;51.19;96371.48;107601;1268;36006;-74
2022/01/08 08:09:19;;;;;;;11.10;4.70;;;;;;;-2.25;51.30;96364.92;107639;1268;33442;-74
2022/01/08 08:11:50;;;;;;;12.20;5.00;;;;;;;-2.35;51.53;96360.42;107599;1268;29852;-74
2022/01/08 08:14:20;;;;;;;7.70;3.90;;;;;;;-2.31;51.95;96366.20;107511;1268;44393;-74
2022/01/08 08:16:52;;;;;;;8.00;3.80;;;;;;;-2.23;51.69;96359.12;107535;1268;44547;-74
2022/01/08 08:19:23;;;;;;;9.00;4.90;;;;;;;-2.19;51.26;96365.39;107518;1268;46147;-74
2022/01/08 08:21:54;;;;;;;8.30;4.80;;;;;;;-2.24;51.17;96356.45;107507;1269;38482;-74
2022/01/08 08:24:25;;;;;;;8.10;4.70;;;;;;;-2.10;51.59;96353.41;107581;1268;47407;-74
2022/01/08 08:26:56;;;;;;;6.20;3.50;;;;;;;-2.08;51.29;96354.37;107554;1269;40759;-74
2022/01/08 08:29:28;;;;;;;9.20;4.50;;;;;;;-2.05;51.25;96346.33;107553;1268;41441;-74
2022/01/08 08:31:59;;;;;;;8.40;4.20;;;;;;;-2.14;51.23;96348.98;107560;1268;40928;-74
2022/01/08 08:34:30;;;;;;;6.60;3.90;;;;;;;-2.12;51.13;96347.25;107569;1268;43297;-74
2022/01/08 08:37:02;;;;;;;9.50;5.00;;;;;;;-2.01;51.25;96343.06;107628;1268;42739;-74
2022/01/08 08:39:33;;;;;;;10.50;5.40;;;;;;;-2.07;50.88;96348.89;107517;1268;45192;-74
2022/01/08 08:42:05;;;;;;;10.80;4.80;;;;;;;-2.05;51.17;96338.33;107614;1268;44376;-74
2022/01/08 08:44:35;;;;;;;9.10;4.70;;;;;;;-2.07;50.91;96335.73;107629;1268;43064;-74
2022/01/08 08:47:07;;;;;;;10.20;5.10;;;;;;;-2.17;51.04;96343.64;107628;1269;43467;-74
2022/01/08 08:49:38;;;;;;;10.70;5.70;;;;;;;-2.17;51.12;96336.84;107607;1268;46785;-74
2022/01/08 08:52:10;;;;;;;10.50;5.60;;;;;;;-2.26;51.13;96337.20;107571;1271;39455;-74
2022/01/08 08:54:42;;;;;;;8.10;4.40;;;;;;;-2.27;51.34;96345.17;107623;1268;47031;-74
2022/01/08 08:57:13;;;;;;;9.80;5.80;;;;;;;-2.34;51.30;96342.09;107481;1270;45737;-74
2022/01/08 08:59:44;;;;;;;11.80;4.60;;;;;;;-2.38;51.62;96335.23;107514;1271;37507;-73
2022/01/08 09:02:15;;;;;;;8.10;3.90;;;;;;;-2.43;51.29;96335.59;107543;1270;35682;-73
2022/01/08 09:04:46;;;;;;;7.00;3.90;;;;;;;-2.42;51.32;96333.70;107516;1270;40142;-73
2022/01/08 09:07:17;;;;;;;8.10;3.80;;;;;;;-2.39;51.23;96334.38;107557;1271;34219;-73
2022/01/08 09:09:48;;;;;;;10.30;4.20;;;;;;;-2.35;51.38;96319.54;107464;1268;57939;-73
2022/01/08 09:12:19;;;;;;;10.70;4.90;;;;;;;-2.36;51.35;96326.41;107575;1270;34571;-73
2022/01/08 09:14:52;;;;;;;8.20;4.00;;;;;;;-2.30;51.30;96325.62;107514;1270;28822;-73
2022/01/08 09:17:24;;;;;;;8.30;4.90;;;;;;;-2.24;51.34;96321.38;107550;1271;36209;-73
2022/01/08 09:19:55;;;;;;;7.50;4.20;;;;;;;-2.21;51.46;96324.29;107603;1268;45107;-73
2022/01/08 09:22:27;;;;;;;10.30;5.10;;;;;;;-2.17;51.50;96319.19;107532;1268;44841;-73
2022/01/08 09:24:58;;;;;;;7.20;3.70;;;;;;;-2.19;51.30;96313.20;107514;1271;36796;-73
2022/01/08 09:27:29;;;;;;;5.90;3.20;;;;;;;-2.25;51.11;96313.42;107478;1270;54792;-73
2022/01/08 09:30:00;;;;;;;8.90;4.20;;;;;;;-2.30;51.21;96320.83;107403;1270;45487;-73
2022/01/08 09:32:31;;;;;;;9.30;4.40;;;;;;;-2.25;50.99;96321.37;107491;1270;50640;-73
2022/01/08 09:35:04;;;;;;;5.10;3.20;;;;;;;-2.25;51.11;96330.20;107603;1268;33977;-73
2022/01/08 09:37:37;;;;;;;6.80;3.30;;;;;;;-2.21;51.07;96334.99;107618;1271;41974;-73
2022/01/08 09:40:12;;;;;;;8.70;4.50;;;;;;;-2.15;50.73;96330.37;107435;1271;33386;-73
2022/01/08 09:42:44;;;;;;;13.70;5.90;;;;;;;-2.15;50.80;96330.33;107504;1268;43764;-74
2022/01/08 09:45:16;;;;;;;9.60;5.20;;;;;;;-2.07;51.01;96325.35;107469;1270;33581;-73
2022/01/08 09:47:47;;;;;;;10.00;4.90;;;;;;;-1.97;50.85;96325.91;107508;1270;39771;-73
2022/01/08 09:50:18;;;;;;;11.00;5.40;;;;;;;-1.88;51.12;96327.76;107562;1268;36621;-73
2022/01/08 09:52:53;;;;;;;11.20;5.40;;;;;;;-1.63;51.45;96324.67;107467;1270;39499;-74
2022/01/08 09:55:25;;;;;;;14.30;5.90;;;;;;;-1.48;50.65;96322.56;107481;1270;42200;-73
2022/01/08 09:57:56;;;;;;;10.60;5.50;;;;;;;-1.31;50.31;96317.73;107496;1271;33218;-74
2022/01/08 10:00:28;;;;;;;8.20;4.40;;;;;;;-1.35;50.16;96316.88;107631;1270;30622;-73
2022/01/08 10:03:15;;;;;;;10.90;6.40;;;;;;;-1.36;50.12;96317.84;107572;1270;36418;-73
2022/01/08 10:05:51;;;;;;;10.80;6.00;;;;;;;-1.33;50.28;96318.23;107535;1268;43132;-73
2022/01/08 10:08:27;;;;;;;11.40;6.60;;;;;;;-1.40;50.07;96317.47;107546;1270;41312;-73
2022/01/08 10:10:59;;;;;;;7.30;4.30;;;;;;;-1.52;50.30;96321.67;107484;1270;36327;-73
2022/01/08 10:13:35;;;;;;;13.10;6.10;;;;;;;-1.55;49.97;96324.27;107557;1270;38637;-73
2022/01/08 10:19:04;;;;;;;12.30;5.90;;;;;;;-1.48;50.54;96336.87;107510;1270;40926;-73
2022/01/08 10:21:37;;;;;;;12.40;6.00;;;;;;;-1.37;50.64;96336.58;107684;1268;32937;-73
2022/01/08 10:24:09;;;;;;;11.50;6.40;;;;;;;-1.32;50.71;96338.80;107711;1268;34974;-73
2022/01/08 10:26:42;;;;;;;13.90;6.80;;;;;;;-1.14;50.82;96337.38;107569;1270;40053;-73
2022/01/08 10:29:16;;;;;;;12.60;5.80;;;;;;;-1.18;50.18;96338.41;107567;1270;36476;-73
2022/01/08 10:31:50;;;;;;;13.90;7.20;;;;;;;-1.27;50.13;96345.55;107514;1269;37534;-73
2022/01/08 10:34:23;;;;;;;11.10;5.70;;;;;;;-1.17;50.36;96342.52;107565;1268;39608;-73
2022/01/08 10:37:01;;;;;;;10.70;5.30;;;;;;;-1.28;49.87;96336.30;107556;1270;41600;-73
2022/01/08 10:39:35;;;;;;;16.00;8.20;;;;;;;-1.38;50.07;96326.70;107555;1270;55479;-73
2022/01/08 10:42:16;;;;;;;15.20;7.30;;;;;;;-1.32;50.25;96328.21;107613;1270;33617;-72
2022/01/08 10:44:49;;;;;;;22.80;8.20;;;;;;;-1.32;50.51;96319.38;107619;1270;34143;-73
2022/01/08 10:47:21;;;;;;;10.60;5.30;;;;;;;-1.33;50.80;96318.70;107558;1268;41332;-72
2022/01/08 10:50:02;;;;;;;9.00;5.60;;;;;;;-1.20;50.62;96320.58;107620;1271;30708;-73
2022/01/08 10:52:44;;;;;;;12.70;7.00;;;;;;;-1.25;50.30;96312.52;107600;1268;41411;-73
2022/01/08 10:55:33;;;;;;;15.80;8.20;;;;;;;-1.23;50.35;96316.48;107599;1271;42335;-72
2022/01/08 10:58:06;;;;;;;17.70;7.20;;;;;;;-1.13;50.72;96314.00;107598;1270;35340;-72
2022/01/08 11:00:37;;;;;;;15.40;8.30;;;;;;;-1.10;50.66;96308.52;107638;1268;33829;-72
2022/01/08 11:03:09;;;;;;;11.60;5.80;;;;;;;-1.16;50.42;96303.05;107560;1270;43058;-72
2022/01/08 11:06:02;;;;;;;13.20;7.20;;;;;;;-1.17;50.46;96310.07;107577;1268;37517;-73
2022/01/08 11:08:33;;;;;;;18.30;8.30;;;;;;;-1.17;50.75;96315.27;107560;1270;45214;-73
2022/01/08 11:11:05;;;;;;;15.20;7.90;;;;;;;-1.03;51.21;96303.27;107607;1270;44945;-73
2022/01/08 11:13:39;;;;;;;17.60;7.80;;;;;;;-0.95;51.24;96306.10;107671;1270;34571;-73
2022/01/08 11:16:10;;;;;;;14.30;8.20;;;;;;;-0.90;50.83;96304.16;107591;1268;41813;-73
2022/01/08 11:18:42;;;;;;;13.80;7.30;;;;;;;-0.84;50.69;96305.21;107562;1270;35771;-72
2022/01/08 11:21:15;;;;;;;14.60;8.20;;;;;;;-0.81;50.52;96295.42;107465;1270;42955;-73
2022/01/08 11:23:46;;;;;;;15.00;7.70;;;;;;;-0.68;51.13;96297.34;107601;1270;34751;-72
2022/01/08 11:26:17;;;;;;;16.70;8.70;;;;;;;-0.57;50.78;96298.02;107573;1269;37762;-72
2022/01/08 11:28:51;;;;;;;14.20;7.10;;;;;;;-0.56;50.78;96297.58;107519;1270;43328;-72
2022/01/08 11:31:24;;;;;;;15.50;7.60;;;;;;;-0.62;50.31;96298.03;107525;1268;33981;-72
2022/01/08 11:33:56;;;;;;;12.40;6.20;;;;;;;-0.65;50.52;96298.43;107580;1268;40339;-72
2022/01/08 11:36:29;;;;;;;11.80;6.60;;;;;;;-0.70;50.27;96285.14;107576;1270;36753;-73
2022/01/08 11:39:00;;;;;;;15.70;8.00;;;;;;;-0.68;49.90;96278.51;107578;1270;35987;-72
2022/01/08 11:41:32;;;;;;;16.30;8.50;;;;;;;-0.57;50.39;96274.95;107525;1270;38600;-73
2022/01/08 11:44:04;;;;;;;15.40;8.80;;;;;;;-0.45;50.07;96271.15;107621;1268;39071;-73
2022/01/08 11:46:37;;;;;;;14.70;8.00;;;;;;;-0.32;49.90;96275.90;107647;1270;33536;-73
2022/01/08 11:49:09;;;;;;;17.30;8.80;;;;;;;-0.19;49.70;96273.17;107571;1269;38741;-73
2022/01/08 11:51:41;;;;;;;16.20;8.40;;;;;;;-0.16;49.73;96276.75;107583;1268;45721;-73
2022/01/08 11:54:12;;;;;;;15.80;8.10;;;;;;;-0.18;49.79;96272.00;107490;1269;60665;-73
2022/01/08 11:57:14;;;;;;;18.10;9.10;;;;;;;-0.22;49.46;96263.88;107554;1270;32320;-72
2022/01/08 11:59:47;;;;;;;14.30;7.90;;;;;;;-0.20;49.60;96250.59;107591;1271;39266;-73
2022/01/08 12:02:19;;;;;;;17.30;9.00;;;;;;;-0.22;49.89;96249.45;107554;1268;40836;-73
2022/01/08 12:04:55;;;;;;;19.60;10.40;;;;;;;-0.19;49.93;96249.41;107585;1268;40510;-72